sensor_id;sensor_type;location;lat;lon;timestamp;P1;durP1;ratioP1;P2;durP2;ratioP2
57395;SDS011;43222;52.912;6.940;2023-08-12T00:01:51;8.25;;;3.60;;
57395;SDS011;43222;52.912;6.940;2023-08-12T00:04:17;6.60;;;3.60;;
57395;SDS011;43222;52.912;6.940;2023-08-12T00:06:43;9.73;;;4.28;;
57395;SDS011;43222;52.912;6.940;2023-08-12T00:09:09;8.60;;;4.05;;
57395;SDS011;43222;52.912;6.940;2023-08-12T00:11:40;6.30;;;3.83;;
57395;SDS011;43222;52.912;6.940;2023-08-12T00:14:06;8.57;;;3.95;;
57395;SDS011;43222;52.912;6.940;2023-08-12T00:16:32;6.13;;;3.47;;
57395;SDS011;43222;52.912;6.940;2023-08-12T00:19:01;7.88;;;3.67;;
57395;SDS011;43222;52.912;6.940;2023-08-12T00:21:27;7.47;;;3.80;;
57395;SDS011;43222;52.912;6.940;2023-08-12T00:23:53;6.93;;;4.07;;
57395;SDS011;43222;52.912;6.940;2023-08-12T00:26:19;7.38;;;3.83;;
57395;SDS011;43222;52.912;6.940;2023-08-12T00:28:48;8.75;;;4.00;;
57395;SDS011;43222;52.912;6.940;2023-08-12T00:31:15;7.80;;;4.20;;
57395;SDS011;43222;52.912;6.940;2023-08-12T00:33:41;9.38;;;4.13;;
57395;SDS011;43222;52.912;6.940;2023-08-12T00:36:07;8.70;;;4.40;;
57395;SDS011;43222;52.912;6.940;2023-08-12T00:38:34;6.80;;;3.83;;
57395;SDS011;43222;52.912;6.940;2023-08-12T00:41:00;6.97;;;4.20;;
57395;SDS011;43222;52.912;6.940;2023-08-12T00:43:26;9.85;;;4.32;;
57395;SDS011;43222;52.912;6.940;2023-08-12T00:45:52;8.63;;;4.50;;
57395;SDS011;43222;52.912;6.940;2023-08-12T00:48:18;9.40;;;4.95;;
57395;SDS011;43222;52.912;6.940;2023-08-12T00:50:44;7.63;;;4.72;;
57395;SDS011;43222;52.912;6.940;2023-08-12T00:53:10;9.25;;;4.90;;
57395;SDS011;43222;52.912;6.940;2023-08-12T00:55:37;11.35;;;5.22;;
57395;SDS011;43222;52.912;6.940;2023-08-12T00:58:03;9.18;;;5.97;;
57395;SDS011;43222;52.912;6.940;2023-08-12T01:00:30;10.65;;;5.95;;
57395;SDS011;43222;52.912;6.940;2023-08-12T01:02:57;10.15;;;6.57;;
57395;SDS011;43222;52.912;6.940;2023-08-12T01:05:26;11.45;;;6.85;;
57395;SDS011;43222;52.912;6.940;2023-08-12T01:07:52;9.85;;;7.00;;
57395;SDS011;43222;52.912;6.940;2023-08-12T01:10:19;11.70;;;7.18;;
57395;SDS011;43222;52.912;6.940;2023-08-12T01:12:56;11.50;;;7.47;;
57395;SDS011;43222;52.912;6.940;2023-08-12T01:15:25;12.73;;;8.00;;
57395;SDS011;43222;52.912;6.940;2023-08-12T01:17:52;13.40;;;8.18;;
57395;SDS011;43222;52.912;6.940;2023-08-12T01:20:22;13.35;;;7.70;;
57395;SDS011;43222;52.912;6.940;2023-08-12T01:22:52;12.45;;;8.50;;
57395;SDS011;43222;52.912;6.940;2023-08-12T01:25:22;10.52;;;8.02;;
57395;SDS011;43222;52.912;6.940;2023-08-12T01:27:48;14.00;;;8.60;;
57395;SDS011;43222;52.912;6.940;2023-08-12T01:30:14;15.27;;;9.32;;
57395;SDS011;43222;52.912;6.940;2023-08-12T01:32:54;16.52;;;9.48;;
57395;SDS011;43222;52.912;6.940;2023-08-12T01:35:41;14.13;;;9.02;;
57395;SDS011;43222;52.912;6.940;2023-08-12T01:38:10;11.57;;;8.50;;
57395;SDS011;43222;52.912;6.940;2023-08-12T01:40:36;13.65;;;8.43;;
57395;SDS011;43222;52.912;6.940;2023-08-12T01:43:04;12.85;;;8.90;;
57395;SDS011;43222;52.912;6.940;2023-08-12T01:45:32;14.02;;;8.85;;
57395;SDS011;43222;52.912;6.940;2023-08-12T01:48:01;12.93;;;8.55;;
57395;SDS011;43222;52.912;6.940;2023-08-12T01:50:28;12.85;;;8.45;;
57395;SDS011;43222;52.912;6.940;2023-08-12T01:52:54;14.00;;;8.90;;
57395;SDS011;43222;52.912;6.940;2023-08-12T01:55:20;15.10;;;9.57;;
57395;SDS011;43222;52.912;6.940;2023-08-12T01:57:46;20.33;;;10.00;;
57395;SDS011;43222;52.912;6.940;2023-08-12T02:00:12;14.75;;;10.27;;
57395;SDS011;43222;52.912;6.940;2023-08-12T02:02:38;13.90;;;9.55;;
57395;SDS011;43222;52.912;6.940;2023-08-12T02:05:04;13.90;;;9.90;;
57395;SDS011;43222;52.912;6.940;2023-08-12T02:07:30;13.15;;;9.90;;
57395;SDS011;43222;52.912;6.940;2023-08-12T02:10:00;15.45;;;10.57;;
57395;SDS011;43222;52.912;6.940;2023-08-12T02:12:26;11.43;;;9.38;;
57395;SDS011;43222;52.912;6.940;2023-08-12T02:14:52;16.05;;;9.45;;
57395;SDS011;43222;52.912;6.940;2023-08-12T02:17:18;16.27;;;10.15;;
57395;SDS011;43222;52.912;6.940;2023-08-12T02:19:44;14.20;;;10.48;;
57395;SDS011;43222;52.912;6.940;2023-08-12T02:22:10;14.02;;;9.43;;
57395;SDS011;43222;52.912;6.940;2023-08-12T02:24:36;14.20;;;9.80;;
57395;SDS011;43222;52.912;6.940;2023-08-12T02:27:02;16.23;;;9.77;;
57395;SDS011;43222;52.912;6.940;2023-08-12T02:29:28;15.10;;;10.65;;
57395;SDS011;43222;52.912;6.940;2023-08-12T02:31:54;15.00;;;10.07;;
57395;SDS011;43222;52.912;6.940;2023-08-12T02:34:20;13.35;;;9.90;;
57395;SDS011;43222;52.912;6.940;2023-08-12T02:36:46;13.82;;;10.55;;
57395;SDS011;43222;52.912;6.940;2023-08-12T02:39:12;14.18;;;10.75;;
57395;SDS011;43222;52.912;6.940;2023-08-12T02:41:39;15.43;;;10.95;;
57395;SDS011;43222;52.912;6.940;2023-08-12T02:44:05;16.30;;;10.90;;
57395;SDS011;43222;52.912;6.940;2023-08-12T02:46:31;17.70;;;11.15;;
57395;SDS011;43222;52.912;6.940;2023-08-12T02:48:57;18.40;;;10.50;;
57395;SDS011;43222;52.912;6.940;2023-08-12T02:51:29;13.35;;;10.57;;
57395;SDS011;43222;52.912;6.940;2023-08-12T02:53:55;15.80;;;10.38;;
57395;SDS011;43222;52.912;6.940;2023-08-12T02:56:21;16.48;;;11.23;;
57395;SDS011;43222;52.912;6.940;2023-08-12T02:58:47;16.98;;;10.25;;
57395;SDS011;43222;52.912;6.940;2023-08-12T03:01:13;18.00;;;10.88;;
57395;SDS011;43222;52.912;6.940;2023-08-12T03:03:39;15.15;;;10.23;;
57395;SDS011;43222;52.912;6.940;2023-08-12T03:06:05;19.08;;;11.35;;
57395;SDS011;43222;52.912;6.940;2023-08-12T03:08:31;17.15;;;10.52;;
57395;SDS011;43222;52.912;6.940;2023-08-12T03:10:58;16.25;;;11.10;;
57395;SDS011;43222;52.912;6.940;2023-08-12T03:13:25;16.52;;;11.38;;
57395;SDS011;43222;52.912;6.940;2023-08-12T03:15:51;16.75;;;10.65;;
57395;SDS011;43222;52.912;6.940;2023-08-12T03:18:17;16.75;;;11.82;;
57395;SDS011;43222;52.912;6.940;2023-08-12T03:20:43;17.40;;;12.20;;
57395;SDS011;43222;52.912;6.940;2023-08-12T03:23:09;15.20;;;11.10;;
57395;SDS011;43222;52.912;6.940;2023-08-12T03:25:35;14.88;;;11.88;;
57395;SDS011;43222;52.912;6.940;2023-08-12T03:28:01;16.92;;;11.80;;
57395;SDS011;43222;52.912;6.940;2023-08-12T03:30:27;16.38;;;11.93;;
57395;SDS011;43222;52.912;6.940;2023-08-12T03:32:53;15.38;;;12.13;;
57395;SDS011;43222;52.912;6.940;2023-08-12T03:35:19;16.42;;;11.73;;
57395;SDS011;43222;52.912;6.940;2023-08-12T03:37:45;18.08;;;12.23;;
57395;SDS011;43222;52.912;6.940;2023-08-12T03:40:11;15.88;;;12.10;;
57395;SDS011;43222;52.912;6.940;2023-08-12T03:42:38;18.25;;;12.85;;
57395;SDS011;43222;52.912;6.940;2023-08-12T03:45:04;17.58;;;12.23;;
57395;SDS011;43222;52.912;6.940;2023-08-12T03:47:30;18.77;;;12.85;;
57395;SDS011;43222;52.912;6.940;2023-08-12T03:49:56;19.45;;;12.07;;
57395;SDS011;43222;52.912;6.940;2023-08-12T03:52:22;20.63;;;12.55;;
57395;SDS011;43222;52.912;6.940;2023-08-12T03:54:48;23.40;;;13.55;;
57395;SDS011;43222;52.912;6.940;2023-08-12T03:57:14;17.63;;;13.18;;
57395;SDS011;43222;52.912;6.940;2023-08-12T03:59:40;20.10;;;14.05;;
57395;SDS011;43222;52.912;6.940;2023-08-12T04:02:06;20.63;;;14.25;;
57395;SDS011;43222;52.912;6.940;2023-08-12T04:04:32;19.27;;;13.27;;
57395;SDS011;43222;52.912;6.940;2023-08-12T04:06:59;17.23;;;13.40;;
57395;SDS011;43222;52.912;6.940;2023-08-12T04:09:25;16.40;;;13.07;;
57395;SDS011;43222;52.912;6.940;2023-08-12T04:11:51;18.20;;;13.63;;
57395;SDS011;43222;52.912;6.940;2023-08-12T04:14:17;18.60;;;13.63;;
57395;SDS011;43222;52.912;6.940;2023-08-12T04:16:43;19.10;;;14.45;;
57395;SDS011;43222;52.912;6.940;2023-08-12T04:19:10;16.50;;;13.52;;
57395;SDS011;43222;52.912;6.940;2023-08-12T04:21:36;19.40;;;14.98;;
57395;SDS011;43222;52.912;6.940;2023-08-12T04:24:02;17.35;;;14.13;;
57395;SDS011;43222;52.912;6.940;2023-08-12T04:26:28;18.35;;;13.63;;
57395;SDS011;43222;52.912;6.940;2023-08-12T04:28:54;23.23;;;15.07;;
57395;SDS011;43222;52.912;6.940;2023-08-12T04:31:20;17.85;;;14.40;;
57395;SDS011;43222;52.912;6.940;2023-08-12T04:33:46;18.20;;;14.02;;
57395;SDS011;43222;52.912;6.940;2023-08-12T04:36:14;18.20;;;14.85;;
57395;SDS011;43222;52.912;6.940;2023-08-12T04:38:40;19.02;;;13.98;;
57395;SDS011;43222;52.912;6.940;2023-08-12T04:41:07;19.73;;;16.00;;
57395;SDS011;43222;52.912;6.940;2023-08-12T04:43:33;20.20;;;15.57;;
57395;SDS011;43222;52.912;6.940;2023-08-12T04:45:59;20.13;;;15.43;;
57395;SDS011;43222;52.912;6.940;2023-08-12T04:48:25;21.48;;;14.68;;
57395;SDS011;43222;52.912;6.940;2023-08-12T04:50:51;19.92;;;15.63;;
57395;SDS011;43222;52.912;6.940;2023-08-12T04:53:17;21.48;;;15.82;;
57395;SDS011;43222;52.912;6.940;2023-08-12T04:55:43;24.33;;;16.17;;
57395;SDS011;43222;52.912;6.940;2023-08-12T04:58:09;23.73;;;16.30;;
57395;SDS011;43222;52.912;6.940;2023-08-12T05:00:35;20.15;;;15.70;;
57395;SDS011;43222;52.912;6.940;2023-08-12T05:03:03;22.85;;;16.80;;
57395;SDS011;43222;52.912;6.940;2023-08-12T05:05:29;21.10;;;14.65;;
57395;SDS011;43222;52.912;6.940;2023-08-12T05:07:55;20.83;;;13.82;;
57395;SDS011;43222;52.912;6.940;2023-08-12T05:10:21;22.25;;;15.93;;
57395;SDS011;43222;52.912;6.940;2023-08-12T05:12:47;20.33;;;15.20;;
57395;SDS011;43222;52.912;6.940;2023-08-12T05:15:15;23.08;;;15.52;;
57395;SDS011;43222;52.912;6.940;2023-08-12T05:17:41;22.92;;;16.13;;
57395;SDS011;43222;52.912;6.940;2023-08-12T05:20:07;20.58;;;14.50;;
57395;SDS011;43222;52.912;6.940;2023-08-12T05:22:33;22.15;;;15.00;;
57395;SDS011;43222;52.912;6.940;2023-08-12T05:24:59;22.35;;;15.77;;
57395;SDS011;43222;52.912;6.940;2023-08-12T05:27:25;17.35;;;14.65;;
57395;SDS011;43222;52.912;6.940;2023-08-12T05:29:51;20.95;;;14.93;;
57395;SDS011;43222;52.912;6.940;2023-08-12T05:32:18;19.98;;;14.98;;
57395;SDS011;43222;52.912;6.940;2023-08-12T05:34:44;17.70;;;14.55;;
57395;SDS011;43222;52.912;6.940;2023-08-12T05:37:10;22.10;;;16.00;;
57395;SDS011;43222;52.912;6.940;2023-08-12T05:39:36;21.63;;;15.45;;
57395;SDS011;43222;52.912;6.940;2023-08-12T05:42:05;20.83;;;15.90;;
57395;SDS011;43222;52.912;6.940;2023-08-12T05:44:31;18.85;;;15.07;;
57395;SDS011;43222;52.912;6.940;2023-08-12T05:46:57;24.23;;;17.10;;
57395;SDS011;43222;52.912;6.940;2023-08-12T05:49:23;18.35;;;16.35;;
57395;SDS011;43222;52.912;6.940;2023-08-12T05:51:49;21.08;;;15.82;;
57395;SDS011;43222;52.912;6.940;2023-08-12T05:54:16;18.45;;;15.65;;
57395;SDS011;43222;52.912;6.940;2023-08-12T05:56:42;20.48;;;17.25;;
57395;SDS011;43222;52.912;6.940;2023-08-12T05:59:08;20.92;;;17.42;;
57395;SDS011;43222;52.912;6.940;2023-08-12T06:01:34;21.88;;;17.00;;
57395;SDS011;43222;52.912;6.940;2023-08-12T06:04:03;20.90;;;17.25;;
57395;SDS011;43222;52.912;6.940;2023-08-12T06:06:29;24.00;;;17.05;;
57395;SDS011;43222;52.912;6.940;2023-08-12T06:08:55;22.33;;;18.50;;
57395;SDS011;43222;52.912;6.940;2023-08-12T06:11:21;20.05;;;16.60;;
57395;SDS011;43222;52.912;6.940;2023-08-12T06:13:47;25.88;;;18.40;;
57395;SDS011;43222;52.912;6.940;2023-08-12T06:16:13;22.92;;;19.23;;
57395;SDS011;43222;52.912;6.940;2023-08-12T06:18:39;22.58;;;19.15;;
57395;SDS011;43222;52.912;6.940;2023-08-12T06:21:05;22.45;;;18.83;;
57395;SDS011;43222;52.912;6.940;2023-08-12T06:23:31;19.50;;;17.40;;
57395;SDS011;43222;52.912;6.940;2023-08-12T06:26:00;20.65;;;17.90;;
57395;SDS011;43222;52.912;6.940;2023-08-12T06:28:27;21.63;;;15.93;;
57395;SDS011;43222;52.912;6.940;2023-08-12T06:30:53;21.92;;;17.17;;
57395;SDS011;43222;52.912;6.940;2023-08-12T06:33:19;20.23;;;15.65;;
57395;SDS011;43222;52.912;6.940;2023-08-12T06:35:45;21.45;;;16.83;;
57395;SDS011;43222;52.912;6.940;2023-08-12T06:38:11;18.35;;;16.45;;
57395;SDS011;43222;52.912;6.940;2023-08-12T06:40:38;18.65;;;16.58;;
57395;SDS011;43222;52.912;6.940;2023-08-12T06:43:04;20.88;;;17.92;;
57395;SDS011;43222;52.912;6.940;2023-08-12T06:45:32;19.13;;;16.98;;
57395;SDS011;43222;52.912;6.940;2023-08-12T06:47:58;20.92;;;17.33;;
57395;SDS011;43222;52.912;6.940;2023-08-12T06:50:24;22.45;;;20.15;;
57395;SDS011;43222;52.912;6.940;2023-08-12T06:52:50;22.70;;;20.23;;
57395;SDS011;43222;52.912;6.940;2023-08-12T06:55:16;23.73;;;21.23;;
57395;SDS011;43222;52.912;6.940;2023-08-12T06:57:42;23.25;;;19.85;;
57395;SDS011;43222;52.912;6.940;2023-08-12T07:00:08;21.45;;;19.17;;
57395;SDS011;43222;52.912;6.940;2023-08-12T07:02:35;25.83;;;23.13;;
57395;SDS011;43222;52.912;6.940;2023-08-12T07:05:01;54.15;;;48.83;;
57395;SDS011;43222;52.912;6.940;2023-08-12T07:07:27;35.58;;;31.98;;
57395;SDS011;43222;52.912;6.940;2023-08-12T07:09:53;26.88;;;24.10;;
57395;SDS011;43222;52.912;6.940;2023-08-12T07:12:19;31.60;;;28.25;;
57395;SDS011;43222;52.912;6.940;2023-08-12T07:14:45;38.17;;;34.17;;
57395;SDS011;43222;52.912;6.940;2023-08-12T07:17:11;30.45;;;25.50;;
57395;SDS011;43222;52.912;6.940;2023-08-12T07:19:37;28.17;;;24.30;;
57395;SDS011;43222;52.912;6.940;2023-08-12T07:22:03;45.28;;;40.92;;
57395;SDS011;43222;52.912;6.940;2023-08-12T07:24:29;35.65;;;32.03;;
57395;SDS011;43222;52.912;6.940;2023-08-12T07:26:55;31.33;;;26.95;;
57395;SDS011;43222;52.912;6.940;2023-08-12T07:29:21;34.85;;;29.10;;
57395;SDS011;43222;52.912;6.940;2023-08-12T07:31:51;29.70;;;24.40;;
57395;SDS011;43222;52.912;6.940;2023-08-12T07:34:17;25.40;;;21.55;;
57395;SDS011;43222;52.912;6.940;2023-08-12T07:36:43;29.65;;;26.10;;
57395;SDS011;43222;52.912;6.940;2023-08-12T07:39:10;26.63;;;22.98;;
57395;SDS011;43222;52.912;6.940;2023-08-12T07:41:36;27.92;;;21.95;;
57395;SDS011;43222;52.912;6.940;2023-08-12T07:44:02;36.95;;;32.75;;
57395;SDS011;43222;52.912;6.940;2023-08-12T07:46:29;28.02;;;23.52;;
57395;SDS011;43222;52.912;6.940;2023-08-12T07:48:55;29.60;;;22.25;;
57395;SDS011;43222;52.912;6.940;2023-08-12T07:51:21;28.40;;;22.90;;
57395;SDS011;43222;52.912;6.940;2023-08-12T07:53:48;60.60;;;54.30;;
57395;SDS011;43222;52.912;6.940;2023-08-12T07:56:16;26.92;;;24.08;;
57395;SDS011;43222;52.912;6.940;2023-08-12T07:58:42;28.77;;;22.98;;
57395;SDS011;43222;52.912;6.940;2023-08-12T08:01:08;26.58;;;22.90;;
57395;SDS011;43222;52.912;6.940;2023-08-12T08:03:34;31.85;;;28.52;;
57395;SDS011;43222;52.912;6.940;2023-08-12T08:06:01;28.20;;;24.60;;
57395;SDS011;43222;52.912;6.940;2023-08-12T08:08:27;28.70;;;23.40;;
57395;SDS011;43222;52.912;6.940;2023-08-12T08:10:53;26.35;;;23.55;;
57395;SDS011;43222;52.912;6.940;2023-08-12T08:13:19;27.08;;;22.67;;
57395;SDS011;43222;52.912;6.940;2023-08-12T08:15:45;27.88;;;22.95;;
57395;SDS011;43222;52.912;6.940;2023-08-12T08:18:11;73.70;;;64.80;;
57395;SDS011;43222;52.912;6.940;2023-08-12T08:20:37;51.50;;;43.15;;
57395;SDS011;43222;52.912;6.940;2023-08-12T08:23:03;32.13;;;28.88;;
57395;SDS011;43222;52.912;6.940;2023-08-12T08:25:30;27.50;;;22.77;;
57395;SDS011;43222;52.912;6.940;2023-08-12T08:27:56;28.10;;;21.80;;
57395;SDS011;43222;52.912;6.940;2023-08-12T08:30:22;24.13;;;21.05;;
57395;SDS011;43222;52.912;6.940;2023-08-12T08:32:50;76.25;;;68.10;;
57395;SDS011;43222;52.912;6.940;2023-08-12T08:35:16;28.92;;;25.90;;
57395;SDS011;43222;52.912;6.940;2023-08-12T08:37:42;25.20;;;22.52;;
57395;SDS011;43222;52.912;6.940;2023-08-12T08:40:08;22.10;;;19.80;;
57395;SDS011;43222;52.912;6.940;2023-08-12T08:42:34;25.77;;;21.02;;
57395;SDS011;43222;52.912;6.940;2023-08-12T08:45:01;28.08;;;19.33;;
57395;SDS011;43222;52.912;6.940;2023-08-12T08:47:27;25.58;;;19.77;;
57395;SDS011;43222;52.912;6.940;2023-08-12T08:49:54;22.55;;;18.48;;
57395;SDS011;43222;52.912;6.940;2023-08-12T08:52:23;36.60;;;31.48;;
57395;SDS011;43222;52.912;6.940;2023-08-12T08:54:50;52.55;;;47.45;;
57395;SDS011;43222;52.912;6.940;2023-08-12T08:57:17;63.00;;;56.40;;
57395;SDS011;43222;52.912;6.940;2023-08-12T08:59:44;32.97;;;29.60;;
57395;SDS011;43222;52.912;6.940;2023-08-12T09:02:13;28.48;;;18.48;;
57395;SDS011;43222;52.912;6.940;2023-08-12T09:04:43;15.57;;;10.50;;
57395;SDS011;43222;52.912;6.940;2023-08-12T09:07:10;13.40;;;9.23;;
57395;SDS011;43222;52.912;6.940;2023-08-12T09:09:37;12.73;;;8.25;;
57395;SDS011;43222;52.912;6.940;2023-08-12T09:12:03;12.05;;;7.53;;
57395;SDS011;43222;52.912;6.940;2023-08-12T09:14:31;12.60;;;7.53;;
57395;SDS011;43222;52.912;6.940;2023-08-12T09:16:57;11.00;;;6.60;;
57395;SDS011;43222;52.912;6.940;2023-08-12T09:19:23;9.40;;;6.28;;
57395;SDS011;43222;52.912;6.940;2023-08-12T09:21:53;11.60;;;7.03;;
57395;SDS011;43222;52.912;6.940;2023-08-12T09:24:25;10.80;;;6.35;;
57395;SDS011;43222;52.912;6.940;2023-08-12T09:26:52;15.80;;;7.78;;
57395;SDS011;43222;52.912;6.940;2023-08-12T09:29:22;17.02;;;8.63;;
57395;SDS011;43222;52.912;6.940;2023-08-12T09:31:48;14.00;;;11.32;;
57395;SDS011;43222;52.912;6.940;2023-08-12T09:34:14;13.52;;;11.38;;
57395;SDS011;43222;52.912;6.940;2023-08-12T09:36:41;13.82;;;10.57;;
57395;SDS011;43222;52.912;6.940;2023-08-12T09:39:07;11.52;;;10.27;;
57395;SDS011;43222;52.912;6.940;2023-08-12T09:41:33;23.02;;;19.88;;
57395;SDS011;43222;52.912;6.940;2023-08-12T09:44:01;17.55;;;15.45;;
57395;SDS011;43222;52.912;6.940;2023-08-12T09:46:28;10.32;;;9.32;;
57395;SDS011;43222;52.912;6.940;2023-08-12T09:48:54;12.40;;;10.43;;
57395;SDS011;43222;52.912;6.940;2023-08-12T09:51:20;13.02;;;11.60;;
57395;SDS011;43222;52.912;6.940;2023-08-12T09:53:50;20.23;;;18.43;;
57395;SDS011;43222;52.912;6.940;2023-08-12T09:56:18;12.35;;;9.88;;
57395;SDS011;43222;52.912;6.940;2023-08-12T09:58:48;10.20;;;7.30;;
57395;SDS011;43222;52.912;6.940;2023-08-12T10:01:16;10.88;;;6.78;;
57395;SDS011;43222;52.912;6.940;2023-08-12T10:03:44;8.50;;;6.05;;
57395;SDS011;43222;52.912;6.940;2023-08-12T10:06:13;10.48;;;6.93;;
57395;SDS011;43222;52.912;6.940;2023-08-12T10:08:39;10.68;;;6.53;;
57395;SDS011;43222;52.912;6.940;2023-08-12T10:11:05;31.23;;;28.35;;
57395;SDS011;43222;52.912;6.940;2023-08-12T10:13:31;17.42;;;15.73;;
57395;SDS011;43222;52.912;6.940;2023-08-12T10:16:00;17.20;;;15.32;;
57395;SDS011;43222;52.912;6.940;2023-08-12T10:18:27;8.23;;;5.65;;
57395;SDS011;43222;52.912;6.940;2023-08-12T10:20:54;7.13;;;4.93;;
57395;SDS011;43222;52.912;6.940;2023-08-12T10:23:26;7.60;;;4.22;;
57395;SDS011;43222;52.912;6.940;2023-08-12T10:25:55;10.35;;;4.60;;
57395;SDS011;43222;52.912;6.940;2023-08-12T10:28:21;8.13;;;4.57;;
57395;SDS011;43222;52.912;6.940;2023-08-12T10:30:48;10.45;;;7.75;;
57395;SDS011;43222;52.912;6.940;2023-08-12T10:33:14;5.80;;;3.50;;
57395;SDS011;43222;52.912;6.940;2023-08-12T10:35:44;8.45;;;3.72;;
57395;SDS011;43222;52.912;6.940;2023-08-12T10:38:11;10.20;;;4.57;;
57395;SDS011;43222;52.912;6.940;2023-08-12T10:40:37;6.63;;;3.15;;
57395;SDS011;43222;52.912;6.940;2023-08-12T10:43:04;8.73;;;3.40;;
57395;SDS011;43222;52.912;6.940;2023-08-12T10:48:34;9.88;;;3.30;;
57395;SDS011;43222;52.912;6.940;2023-08-12T10:51:01;6.57;;;2.67;;
57395;SDS011;43222;52.912;6.940;2023-08-12T10:53:27;7.55;;;3.90;;
57395;SDS011;43222;52.912;6.940;2023-08-12T10:55:55;6.75;;;2.85;;
57395;SDS011;43222;52.912;6.940;2023-08-12T10:58:29;4.45;;;2.17;;
57395;SDS011;43222;52.912;6.940;2023-08-12T11:00:56;5.30;;;2.47;;
57395;SDS011;43222;52.912;6.940;2023-08-12T11:03:22;6.75;;;2.38;;
57395;SDS011;43222;52.912;6.940;2023-08-12T11:05:48;5.57;;;2.58;;
57395;SDS011;43222;52.912;6.940;2023-08-12T11:08:15;5.80;;;2.70;;
57395;SDS011;43222;52.912;6.940;2023-08-12T11:10:41;5.82;;;2.58;;
57395;SDS011;43222;52.912;6.940;2023-08-12T11:13:08;6.22;;;2.65;;
57395;SDS011;43222;52.912;6.940;2023-08-12T11:15:44;6.38;;;2.30;;
57395;SDS011;43222;52.912;6.940;2023-08-12T11:18:15;5.00;;;2.58;;
57395;SDS011;43222;52.912;6.940;2023-08-12T11:20:42;5.60;;;2.33;;
57395;SDS011;43222;52.912;6.940;2023-08-12T11:23:09;6.28;;;2.30;;
57395;SDS011;43222;52.912;6.940;2023-08-12T11:25:36;4.85;;;2.45;;
57395;SDS011;43222;52.912;6.940;2023-08-12T11:28:03;5.38;;;2.03;;
57395;SDS011;43222;52.912;6.940;2023-08-12T11:30:30;4.07;;;1.70;;
57395;SDS011;43222;52.912;6.940;2023-08-12T11:32:56;4.00;;;1.70;;
57395;SDS011;43222;52.912;6.940;2023-08-12T11:35:23;3.22;;;1.50;;
57395;SDS011;43222;52.912;6.940;2023-08-12T11:37:50;3.70;;;1.70;;
57395;SDS011;43222;52.912;6.940;2023-08-12T11:40:18;4.15;;;1.60;;
57395;SDS011;43222;52.912;6.940;2023-08-12T11:42:45;3.25;;;1.70;;
57395;SDS011;43222;52.912;6.940;2023-08-12T11:45:12;3.00;;;1.20;;
57395;SDS011;43222;52.912;6.940;2023-08-12T11:47:39;4.65;;;1.70;;
57395;SDS011;43222;52.912;6.940;2023-08-12T11:50:06;4.47;;;1.50;;
57395;SDS011;43222;52.912;6.940;2023-08-12T11:52:33;3.13;;;1.27;;
57395;SDS011;43222;52.912;6.940;2023-08-12T11:54:59;3.92;;;1.40;;
57395;SDS011;43222;52.912;6.940;2023-08-12T11:57:26;3.28;;;1.30;;
57395;SDS011;43222;52.912;6.940;2023-08-12T11:59:53;6.82;;;1.60;;
57395;SDS011;43222;52.912;6.940;2023-08-12T12:02:19;4.05;;;1.70;;
57395;SDS011;43222;52.912;6.940;2023-08-12T12:04:46;4.43;;;1.60;;
57395;SDS011;43222;52.912;6.940;2023-08-12T12:07:22;2.70;;;1.40;;
57395;SDS011;43222;52.912;6.940;2023-08-12T12:09:52;3.95;;;1.67;;
57395;SDS011;43222;52.912;6.940;2023-08-12T12:12:24;11.20;;;1.30;;
57395;SDS011;43222;52.912;6.940;2023-08-12T12:14:54;3.47;;;0.90;;
57395;SDS011;43222;52.912;6.940;2023-08-12T12:17:22;1.52;;;0.70;;
57395;SDS011;43222;52.912;6.940;2023-08-12T12:19:54;1.70;;;0.80;;
57395;SDS011;43222;52.912;6.940;2023-08-12T12:22:25;2.92;;;0.80;;
57395;SDS011;43222;52.912;6.940;2023-08-12T12:24:52;2.17;;;0.90;;
57395;SDS011;43222;52.912;6.940;2023-08-12T12:27:18;2.83;;;1.00;;
57395;SDS011;43222;52.912;6.940;2023-08-12T12:29:44;2.72;;;1.02;;
57395;SDS011;43222;52.912;6.940;2023-08-12T12:32:11;3.63;;;1.10;;
57395;SDS011;43222;52.912;6.940;2023-08-12T12:34:40;3.60;;;1.15;;
57395;SDS011;43222;52.912;6.940;2023-08-12T12:37:06;3.80;;;1.05;;
57395;SDS011;43222;52.912;6.940;2023-08-12T12:39:32;3.50;;;1.00;;
57395;SDS011;43222;52.912;6.940;2023-08-12T12:41:58;3.00;;;1.10;;
57395;SDS011;43222;52.912;6.940;2023-08-12T12:44:24;3.67;;;1.10;;
57395;SDS011;43222;52.912;6.940;2023-08-12T12:46:50;5.43;;;1.30;;
57395;SDS011;43222;52.912;6.940;2023-08-12T12:49:17;3.40;;;1.17;;
57395;SDS011;43222;52.912;6.940;2023-08-12T12:51:43;4.28;;;1.20;;
57395;SDS011;43222;52.912;6.940;2023-08-12T12:54:09;3.88;;;1.30;;
57395;SDS011;43222;52.912;6.940;2023-08-12T12:56:35;2.25;;;1.13;;
57395;SDS011;43222;52.912;6.940;2023-08-12T12:59:01;1.98;;;0.90;;
57395;SDS011;43222;52.912;6.940;2023-08-12T13:01:27;4.00;;;1.02;;
57395;SDS011;43222;52.912;6.940;2023-08-12T13:03:53;3.58;;;1.30;;
57395;SDS011;43222;52.912;6.940;2023-08-12T13:06:19;2.50;;;1.08;;
57395;SDS011;43222;52.912;6.940;2023-08-12T13:08:45;3.80;;;1.10;;
57395;SDS011;43222;52.912;6.940;2023-08-12T13:11:12;3.83;;;1.52;;
57395;SDS011;43222;52.912;6.940;2023-08-12T13:13:38;4.47;;;1.50;;
57395;SDS011;43222;52.912;6.940;2023-08-12T13:16:04;3.63;;;1.30;;
57395;SDS011;43222;52.912;6.940;2023-08-12T13:18:30;3.80;;;1.30;;
57395;SDS011;43222;52.912;6.940;2023-08-12T13:20:56;4.80;;;1.35;;
57395;SDS011;43222;52.912;6.940;2023-08-12T13:23:22;5.55;;;1.30;;
57395;SDS011;43222;52.912;6.940;2023-08-12T13:25:48;6.15;;;1.50;;
57395;SDS011;43222;52.912;6.940;2023-08-12T13:28:14;4.18;;;1.25;;
57395;SDS011;43222;52.912;6.940;2023-08-12T13:30:40;4.72;;;1.40;;
57395;SDS011;43222;52.912;6.940;2023-08-12T13:33:06;6.28;;;1.50;;
57395;SDS011;43222;52.912;6.940;2023-08-12T13:35:33;5.68;;;1.67;;
57395;SDS011;43222;52.912;6.940;2023-08-12T13:37:59;6.13;;;1.58;;
57395;SDS011;43222;52.912;6.940;2023-08-12T13:40:25;6.55;;;1.85;;
57395;SDS011;43222;52.912;6.940;2023-08-12T13:42:51;5.60;;;1.30;;
57395;SDS011;43222;52.912;6.940;2023-08-12T13:45:18;7.07;;;1.50;;
57395;SDS011;43222;52.912;6.940;2023-08-12T13:47:44;5.43;;;1.77;;
57395;SDS011;43222;52.912;6.940;2023-08-12T13:50:10;5.47;;;1.73;;
57395;SDS011;43222;52.912;6.940;2023-08-12T13:52:36;7.47;;;1.70;;
57395;SDS011;43222;52.912;6.940;2023-08-12T13:55:02;7.45;;;2.00;;
57395;SDS011;43222;52.912;6.940;2023-08-12T13:57:28;6.18;;;1.63;;
57395;SDS011;43222;52.912;6.940;2023-08-12T13:59:55;6.57;;;1.67;;
57395;SDS011;43222;52.912;6.940;2023-08-12T14:02:21;8.60;;;3.15;;
57395;SDS011;43222;52.912;6.940;2023-08-12T14:04:47;7.68;;;2.00;;
57395;SDS011;43222;52.912;6.940;2023-08-12T14:07:14;9.10;;;2.03;;
57395;SDS011;43222;52.912;6.940;2023-08-12T14:09:41;5.80;;;1.73;;
57395;SDS011;43222;52.912;6.940;2023-08-12T14:12:07;7.20;;;1.75;;
57395;SDS011;43222;52.912;6.940;2023-08-12T14:14:33;8.38;;;2.08;;
57395;SDS011;43222;52.912;6.940;2023-08-12T14:16:59;8.52;;;2.00;;
57395;SDS011;43222;52.912;6.940;2023-08-12T14:19:25;9.70;;;2.20;;
57395;SDS011;43222;52.912;6.940;2023-08-12T14:21:51;9.10;;;2.10;;
57395;SDS011;43222;52.912;6.940;2023-08-12T14:24:17;6.18;;;1.52;;
57395;SDS011;43222;52.912;6.940;2023-08-12T14:26:43;7.80;;;1.83;;
57395;SDS011;43222;52.912;6.940;2023-08-12T14:29:09;7.15;;;2.05;;
57395;SDS011;43222;52.912;6.940;2023-08-12T14:31:36;7.57;;;2.05;;
57395;SDS011;43222;52.912;6.940;2023-08-12T14:34:02;6.32;;;1.88;;